sensor_id;sensor_type;location;lat;lon;timestamp;temperature;humidity
35523;DHT22;61478;50.820;4.330;2023-03-12T00:01:20;6.30;99.90
35523;DHT22;61478;50.820;4.330;2023-03-12T00:07:59;5.90;99.90
35523;DHT22;61478;50.820;4.330;2023-03-12T00:10:49;5.90;99.90
35523;DHT22;61478;50.820;4.330;2023-03-12T00:24:11;6.10;99.90
35523;DHT22;61478;50.820;4.330;2023-03-12T00:42:58;5.90;99.90
35523;DHT22;61478;50.820;4.330;2023-03-12T00:46:08;5.80;99.90
35523;DHT22;61478;50.820;4.330;2023-03-12T00:52:59;5.60;99.90
35523;DHT22;61478;50.820;4.330;2023-03-12T00:59:11;5.60;99.90
35523;DHT22;61478;50.820;4.330;2023-03-12T01:05:20;5.60;99.90
35523;DHT22;61478;50.820;4.330;2023-03-12T01:08:15;5.50;99.90
35523;DHT22;61478;50.820;4.330;2023-03-12T01:10:53;5.60;99.90
35523;DHT22;61478;50.820;4.330;2023-03-12T01:13:28;5.40;99.90
35523;DHT22;61478;50.820;4.330;2023-03-12T01:19:19;5.60;99.90
35523;DHT22;61478;50.820;4.330;2023-03-12T01:22:17;5.50;99.90
35523;DHT22;61478;50.820;4.330;2023-03-12T01:25:09;5.50;99.90
35523;DHT22;61478;50.820;4.330;2023-03-12T01:31:32;5.30;99.90
35523;DHT22;61478;50.820;4.330;2023-03-12T01:34:16;5.40;99.90
35523;DHT22;61478;50.820;4.330;2023-03-12T01:37:17;5.20;99.90
35523;DHT22;61478;50.820;4.330;2023-03-12T01:50:26;5.40;99.90
35523;DHT22;61478;50.820;4.330;2023-03-12T01:53:40;5.20;99.90
35523;DHT22;61478;50.820;4.330;2023-03-12T02:07:13;5.20;99.90
35523;DHT22;61478;50.820;4.330;2023-03-12T02:13:40;5.00;99.90
35523;DHT22;61478;50.820;4.330;2023-03-12T02:17:00;5.00;99.90
35523;DHT22;61478;50.820;4.330;2023-03-12T02:29:56;4.90;99.90
35523;DHT22;61478;50.820;4.330;2023-03-12T02:35:47;5.00;99.90
35523;DHT22;61478;50.820;4.330;2023-03-12T02:42:17;5.10;99.90
35523;DHT22;61478;50.820;4.330;2023-03-12T02:45:07;5.00;99.90
35523;DHT22;61478;50.820;4.330;2023-03-12T02:51:15;5.00;99.90
35523;DHT22;61478;50.820;4.330;2023-03-12T02:57:10;4.90;99.90
35523;DHT22;61478;50.820;4.330;2023-03-12T03:00:18;4.90;99.90
35523;DHT22;61478;50.820;4.330;2023-03-12T03:06:50;4.90;99.90
35523;DHT22;61478;50.820;4.330;2023-03-12T03:23:52;5.00;99.90
35523;DHT22;61478;50.820;4.330;2023-03-12T03:30:04;5.10;99.90
35523;DHT22;61478;50.820;4.330;2023-03-12T03:32:46;5.10;99.90
35523;DHT22;61478;50.820;4.330;2023-03-12T03:39:05;5.20;99.90
35523;DHT22;61478;50.820;4.330;2023-03-12T03:41:54;5.20;99.90
35523;DHT22;61478;50.820;4.330;2023-03-12T03:44:49;5.30;99.90
35523;DHT22;61478;50.820;4.330;2023-03-12T03:51:13;5.30;99.90
35523;DHT22;61478;50.820;4.330;2023-03-12T03:53:42;5.40;99.90
35523;DHT22;61478;50.820;4.330;2023-03-12T03:56:39;5.30;99.90
35523;DHT22;61478;50.820;4.330;2023-03-12T04:02:37;5.30;99.90
35523;DHT22;61478;50.820;4.330;2023-03-12T04:05:53;5.30;99.90
35523;DHT22;61478;50.820;4.330;2023-03-12T04:08:26;5.30;99.90
35523;DHT22;61478;50.820;4.330;2023-03-12T04:11:19;5.40;99.90
35523;DHT22;61478;50.820;4.330;2023-03-12T04:18:10;5.40;99.90
35523;DHT22;61478;50.820;4.330;2023-03-12T04:31:48;5.50;99.90
35523;DHT22;61478;50.820;4.330;2023-03-12T04:35:10;5.50;99.90
35523;DHT22;61478;50.820;4.330;2023-03-12T04:38:10;5.50;99.90
35523;DHT22;61478;50.820;4.330;2023-03-12T04:47:12;5.40;99.90
35523;DHT22;61478;50.820;4.330;2023-03-12T04:52:50;5.30;99.90
35523;DHT22;61478;50.820;4.330;2023-03-12T04:55:31;5.40;99.90
35523;DHT22;61478;50.820;4.330;2023-03-12T05:08:22;5.40;99.90
35523;DHT22;61478;50.820;4.330;2023-03-12T05:14:34;5.50;99.90
35523;DHT22;61478;50.820;4.330;2023-03-12T05:17:17;5.50;99.90
35523;DHT22;61478;50.820;4.330;2023-03-12T05:20:23;5.60;99.90
35523;DHT22;61478;50.820;4.330;2023-03-12T05:23:37;5.60;99.90
35523;DHT22;61478;50.820;4.330;2023-03-12T05:26:52;5.60;99.90
35523;DHT22;61478;50.820;4.330;2023-03-12T05:30:06;5.70;99.90
35523;DHT22;61478;50.820;4.330;2023-03-12T05:33:30;5.70;99.90
35523;DHT22;61478;50.820;4.330;2023-03-12T05:39:41;5.80;99.90
35523;DHT22;61478;50.820;4.330;2023-03-12T05:42:34;5.90;99.90
35523;DHT22;61478;50.820;4.330;2023-03-12T05:45:12;5.90;99.90
35523;DHT22;61478;50.820;4.330;2023-03-12T05:51:55;6.00;99.90
35523;DHT22;61478;50.820;4.330;2023-03-12T06:05:43;6.20;99.90
35523;DHT22;61478;50.820;4.330;2023-03-12T06:12:03;6.30;99.90
35523;DHT22;61478;50.820;4.330;2023-03-12T06:18:04;6.30;99.90
35523;DHT22;61478;50.820;4.330;2023-03-12T06:20:40;6.30;99.90
35523;DHT22;61478;50.820;4.330;2023-03-12T06:23:34;6.30;99.90
35523;DHT22;61478;50.820;4.330;2023-03-12T06:26:30;6.40;99.90
35523;DHT22;61478;50.820;4.330;2023-03-12T06:29:04;6.40;99.90
35523;DHT22;61478;50.820;4.330;2023-03-12T06:35:09;6.50;99.90
35523;DHT22;61478;50.820;4.330;2023-03-12T06:44:37;6.60;99.90
35523;DHT22;61478;50.820;4.330;2023-03-12T06:47:28;6.70;99.90
35523;DHT22;61478;50.820;4.330;2023-03-12T06:57:17;6.80;99.90
35523;DHT22;61478;50.820;4.330;2023-03-12T07:00:56;6.90;99.90
35523;DHT22;61478;50.820;4.330;2023-03-12T07:03:45;6.90;99.90
35523;DHT22;61478;50.820;4.330;2023-03-12T07:10:00;7.00;99.90
35523;DHT22;61478;50.820;4.330;2023-03-12T07:12:33;7.10;99.90
35523;DHT22;61478;50.820;4.330;2023-03-12T07:15:29;7.10;99.90
35523;DHT22;61478;50.820;4.330;2023-03-12T07:21:49;7.20;99.90
35523;DHT22;61478;50.820;4.330;2023-03-12T07:24:39;7.30;99.90
35523;DHT22;61478;50.820;4.330;2023-03-12T07:27:26;7.40;99.90
35523;DHT22;61478;50.820;4.330;2023-03-12T07:33:54;7.50;99.90
35523;DHT22;61478;50.820;4.330;2023-03-12T07:37:00;7.50;99.90
35523;DHT22;61478;50.820;4.330;2023-03-12T07:39:44;7.60;99.90
35523;DHT22;61478;50.820;4.330;2023-03-12T07:46:36;7.70;99.90
35523;DHT22;61478;50.820;4.330;2023-03-12T07:49:21;7.80;99.90
35523;DHT22;61478;50.820;4.330;2023-03-12T08:05:41;8.10;99.90
35523;DHT22;61478;50.820;4.330;2023-03-12T08:08:21;8.20;99.90
35523;DHT22;61478;50.820;4.330;2023-03-12T08:11:51;8.20;99.90
35523;DHT22;61478;50.820;4.330;2023-03-12T08:18:39;8.30;99.90
35523;DHT22;61478;50.820;4.330;2023-03-12T08:24:44;8.40;99.90
35523;DHT22;61478;50.820;4.330;2023-03-12T08:27:30;8.40;99.90
35523;DHT22;61478;50.820;4.330;2023-03-12T08:30:06;8.60;99.90
35523;DHT22;61478;50.820;4.330;2023-03-12T08:36:37;8.50;99.90
35523;DHT22;61478;50.820;4.330;2023-03-12T08:39:22;8.60;99.90
35523;DHT22;61478;50.820;4.330;2023-03-12T08:42:22;8.70;99.90
35523;DHT22;61478;50.820;4.330;2023-03-12T08:51:36;8.90;99.90
35523;DHT22;61478;50.820;4.330;2023-03-12T08:54:31;9.00;99.90
35523;DHT22;61478;50.820;4.330;2023-03-12T09:00:35;9.10;99.90
35523;DHT22;61478;50.820;4.330;2023-03-12T09:03:43;9.20;99.90
35523;DHT22;61478;50.820;4.330;2023-03-12T09:27:23;10.10;99.90
35523;DHT22;61478;50.820;4.330;2023-03-12T09:36:42;10.50;99.90
35523;DHT22;61478;50.820;4.330;2023-03-12T09:44:01;10.70;99.90
35523;DHT22;61478;50.820;4.330;2023-03-12T09:47:08;10.70;99.90
35523;DHT22;61478;50.820;4.330;2023-03-12T09:49:47;10.70;99.90
35523;DHT22;61478;50.820;4.330;2023-03-12T09:59:20;11.00;99.90
35523;DHT22;61478;50.820;4.330;2023-03-12T10:02:28;11.00;99.90
35523;DHT22;61478;50.820;4.330;2023-03-12T10:08:47;11.10;99.90
35523;DHT22;61478;50.820;4.330;2023-03-12T10:25:13;11.20;99.90
35523;DHT22;61478;50.820;4.330;2023-03-12T10:27:49;11.30;99.90
35523;DHT22;61478;50.820;4.330;2023-03-12T10:33:59;11.60;99.90
35523;DHT22;61478;50.820;4.330;2023-03-12T10:36:49;11.60;99.90
35523;DHT22;61478;50.820;4.330;2023-03-12T10:39:33;11.60;99.90
35523;DHT22;61478;50.820;4.330;2023-03-12T10:42:25;11.60;99.90
35523;DHT22;61478;50.820;4.330;2023-03-12T10:48:21;11.70;99.90
35523;DHT22;61478;50.820;4.330;2023-03-12T10:54:19;11.60;99.90
35523;DHT22;61478;50.820;4.330;2023-03-12T10:57:37;11.80;99.90
35523;DHT22;61478;50.820;4.330;2023-03-12T11:00:07;11.90;99.90
35523;DHT22;61478;50.820;4.330;2023-03-12T11:06:35;12.20;99.90
35523;DHT22;61478;50.820;4.330;2023-03-12T11:09:21;12.10;99.90
35523;DHT22;61478;50.820;4.330;2023-03-12T11:12:32;12.20;99.90
35523;DHT22;61478;50.820;4.330;2023-03-12T11:19:09;12.10;99.90
35523;DHT22;61478;50.820;4.330;2023-03-12T11:26:04;11.90;99.90
35523;DHT22;61478;50.820;4.330;2023-03-12T11:34:52;12.00;99.90
35523;DHT22;61478;50.820;4.330;2023-03-12T11:44:31;12.20;99.90
35523;DHT22;61478;50.820;4.330;2023-03-12T13:29:36;12.30;99.90
35523;DHT22;61478;50.820;4.330;2023-03-12T13:48:46;12.80;99.90
35523;DHT22;61478;50.820;4.330;2023-03-12T13:52:02;12.80;99.90
35523;DHT22;61478;50.820;4.330;2023-03-12T13:55:04;12.90;99.90
35523;DHT22;61478;50.820;4.330;2023-03-12T13:58:08;12.80;99.90
35523;DHT22;61478;50.820;4.330;2023-03-12T14:01:02;12.70;99.90
35523;DHT22;61478;50.820;4.330;2023-03-12T14:11:11;12.70;99.90
35523;DHT22;61478;50.820;4.330;2023-03-12T14:17:00;12.60;99.90
35523;DHT22;61478;50.820;4.330;2023-03-12T14:19:49;12.60;99.90
35523;DHT22;61478;50.820;4.330;2023-03-12T14:23:13;12.50;99.90
35523;DHT22;61478;50.820;4.330;2023-03-12T14:29:19;12.50;99.90
35523;DHT22;61478;50.820;4.330;2023-03-12T14:32:38;12.60;99.90
35523;DHT22;61478;50.820;4.330;2023-03-12T14:35:37;12.60;99.90
35523;DHT22;61478;50.820;4.330;2023-03-12T14:39:00;12.70;99.90
35523;DHT22;61478;50.820;4.330;2023-03-12T14:41:44;12.80;99.90
35523;DHT22;61478;50.820;4.330;2023-03-12T14:45:09;12.70;99.90
35523;DHT22;61478;50.820;4.330;2023-03-12T14:47:24;12.70;99.90
35523;DHT22;61478;50.820;4.330;2023-03-12T14:49:57;12.80;99.90
35523;DHT22;61478;50.820;4.330;2023-03-12T14:52:32;12.80;99.90
35523;DHT22;61478;50.820;4.330;2023-03-12T14:58:29;12.70;99.90
35523;DHT22;61478;50.820;4.330;2023-03-12T15:01:02;12.70;99.90
35523;DHT22;61478;50.820;4.330;2023-03-12T15:04:25;12.70;99.90
35523;DHT22;61478;50.820;4.330;2023-03-12T15:14:16;12.60;99.90
35523;DHT22;61478;50.820;4.330;2023-03-12T15:17:16;12.60;99.90
35523;DHT22;61478;50.820;4.330;2023-03-12T15:20:19;12.60;99.90
35523;DHT22;61478;50.820;4.330;2023-03-12T15:22:56;12.60;99.90
35523;DHT22;61478;50.820;4.330;2023-03-12T15:28:40;12.50;99.90
35523;DHT22;61478;50.820;4.330;2023-03-12T15:31:24;12.60;99.90
35523;DHT22;61478;50.820;4.330;2023-03-12T15:34:38;12.60;99.90
35523;DHT22;61478;50.820;4.330;2023-03-12T15:37:25;12.70;99.90
35523;DHT22;61478;50.820;4.330;2023-03-12T15:40:43;12.70;99.90
35523;DHT22;61478;50.820;4.330;2023-03-12T15:43:26;12.70;99.90
35523;DHT22;61478;50.820;4.330;2023-03-12T15:49:18;12.60;99.90
35523;DHT22;61478;50.820;4.330;2023-03-12T15:52:35;12.50;99.90
35523;DHT22;61478;50.820;4.330;2023-03-12T15:55:28;12.50;99.90
35523;DHT22;61478;50.820;4.330;2023-03-12T16:02:08;12.50;99.90
35523;DHT22;61478;50.820;4.330;2023-03-12T16:04:54;12.40;99.90
35523;DHT22;61478;50.820;4.330;2023-03-12T16:07:21;12.40;99.90
35523;DHT22;61478;50.820;4.330;2023-03-12T16:10:04;12.40;99.90
35523;DHT22;61478;50.820;4.330;2023-03-12T16:15:59;12.40;99.90
35523;DHT22;61478;50.820;4.330;2023-03-12T16:19:10;12.30;99.90
35523;DHT22;61478;50.820;4.330;2023-03-12T16:22:17;12.30;99.90
35523;DHT22;61478;50.820;4.330;2023-03-12T16:25:11;12.30;99.90
35523;DHT22;61478;50.820;4.330;2023-03-12T16:28:23;12.30;99.90
35523;DHT22;61478;50.820;4.330;2023-03-12T16:37:38;12.40;99.90
35523;DHT22;61478;50.820;4.330;2023-03-12T16:40:13;12.40;99.90
35523;DHT22;61478;50.820;4.330;2023-03-12T16:43:29;12.50;99.90
35523;DHT22;61478;50.820;4.330;2023-03-12T16:49:51;12.30;99.90
35523;DHT22;61478;50.820;4.330;2023-03-12T16:52:46;12.20;99.90
35523;DHT22;61478;50.820;4.330;2023-03-12T16:55:53;12.20;99.90
35523;DHT22;61478;50.820;4.330;2023-03-12T16:58:29;12.20;99.90
35523;DHT22;61478;50.820;4.330;2023-03-12T17:00:56;12.10;99.90
35523;DHT22;61478;50.820;4.330;2023-03-12T17:03:36;12.10;99.90
35523;DHT22;61478;50.820;4.330;2023-03-12T17:06:15;12.10;99.90
35523;DHT22;61478;50.820;4.330;2023-03-12T17:09:15;12.10;99.90
35523;DHT22;61478;50.820;4.330;2023-03-12T17:11:53;12.00;99.90
35523;DHT22;61478;50.820;4.330;2023-03-12T17:14:25;12.00;99.90
35523;DHT22;61478;50.820;4.330;2023-03-12T17:16:55;12.00;99.90
35523;DHT22;61478;50.820;4.330;2023-03-12T17:19:39;12.00;99.90
35523;DHT22;61478;50.820;4.330;2023-03-12T17:22:05;11.90;99.90
35523;DHT22;61478;50.820;4.330;2023-03-12T17:24:57;11.90;99.90
35523;DHT22;61478;50.820;4.330;2023-03-12T17:27:59;11.90;99.90
35523;DHT22;61478;50.820;4.330;2023-03-12T17:30:55;11.90;99.90
35523;DHT22;61478;50.820;4.330;2023-03-12T17:33:31;11.90;99.90
35523;DHT22;61478;50.820;4.330;2023-03-12T17:36:34;11.80;99.90
35523;DHT22;61478;50.820;4.330;2023-03-12T17:39:07;11.90;99.90
35523;DHT22;61478;50.820;4.330;2023-03-12T17:41:42;11.80;99.90
35523;DHT22;61478;50.820;4.330;2023-03-12T17:44:12;11.90;99.90
35523;DHT22;61478;50.820;4.330;2023-03-12T17:47:00;12.00;99.90
35523;DHT22;61478;50.820;4.330;2023-03-12T17:49:34;11.90;99.90
35523;DHT22;61478;50.820;4.330;2023-03-12T17:52:01;11.90;99.90
35523;DHT22;61478;50.820;4.330;2023-03-12T17:54:27;11.80;99.90
35523;DHT22;61478;50.820;4.330;2023-03-12T17:56:59;11.90;99.90
35523;DHT22;61478;50.820;4.330;2023-03-12T17:59:51;11.90;99.90
35523;DHT22;61478;50.820;4.330;2023-03-12T18:02:21;12.00;99.90
35523;DHT22;61478;50.820;4.330;2023-03-12T18:04:56;12.00;99.90
35523;DHT22;61478;50.820;4.330;2023-03-12T18:07:25;12.00;99.90
35523;DHT22;61478;50.820;4.330;2023-03-12T18:09:54;11.90;99.90
35523;DHT22;61478;50.820;4.330;2023-03-12T18:12:20;11.90;99.90
35523;DHT22;61478;50.820;4.330;2023-03-12T18:14:46;11.90;99.90
35523;DHT22;61478;50.820;4.330;2023-03-12T18:17:15;11.90;99.90
35523;DHT22;61478;50.820;4.330;2023-03-12T18:19:41;11.80;99.90
35523;DHT22;61478;50.820;4.330;2023-03-12T18:22:11;11.90;99.90
35523;DHT22;61478;50.820;4.330;2023-03-12T18:24:44;11.80;99.90
35523;DHT22;61478;50.820;4.330;2023-03-12T18:27:11;11.80;99.90
35523;DHT22;61478;50.820;4.330;2023-03-12T18:29:42;11.70;99.90
35523;DHT22;61478;50.820;4.330;2023-03-12T18:32:08;11.70;99.90
35523;DHT22;61478;50.820;4.330;2023-03-12T18:34:34;11.70;99.90
35523;DHT22;61478;50.820;4.330;2023-03-12T18:37:03;11.70;99.90
35523;DHT22;61478;50.820;4.330;2023-03-12T18:39:29;11.70;99.90
35523;DHT22;61478;50.820;4.330;2023-03-12T18:42:07;11.60;99.90
35523;DHT22;61478;50.820;4.330;2023-03-12T18:44:52;11.60;99.90
35523;DHT22;61478;50.820;4.330;2023-03-12T18:47:41;11.60;99.90
35523;DHT22;61478;50.820;4.330;2023-03-12T18:50:27;11.60;99.90
35523;DHT22;61478;50.820;4.330;2023-03-12T18:53:02;11.70;99.90
35523;DHT22;61478;50.820;4.330;2023-03-12T18:55:37;11.70;99.90
35523;DHT22;61478;50.820;4.330;2023-03-12T18:58:53;11.70;99.90
35523;DHT22;61478;50.820;4.330;2023-03-12T19:04:24;11.70;99.90
35523;DHT22;61478;50.820;4.330;2023-03-12T19:07:01;11.70;99.90
35523;DHT22;61478;50.820;4.330;2023-03-12T19:09:30;11.70;99.90
35523;DHT22;61478;50.820;4.330;2023-03-12T19:12:29;11.80;99.90
35523;DHT22;61478;50.820;4.330;2023-03-12T19:15:04;11.80;99.90
35523;DHT22;61478;50.820;4.330;2023-03-12T19:17:45;11.80;99.90
35523;DHT22;61478;50.820;4.330;2023-03-12T19:20:33;11.70;99.90
35523;DHT22;61478;50.820;4.330;2023-03-12T19:23:05;11.80;99.90
35523;DHT22;61478;50.820;4.330;2023-03-12T19:25:32;11.80;99.90
35523;DHT22;61478;50.820;4.330;2023-03-12T19:28:02;11.80;99.90
35523;DHT22;61478;50.820;4.330;2023-03-12T19:30:54;11.80;99.90
35523;DHT22;61478;50.820;4.330;2023-03-12T19:33:34;11.80;99.90
35523;DHT22;61478;50.820;4.330;2023-03-12T19:36:04;11.80;99.90
35523;DHT22;61478;50.820;4.330;2023-03-12T19:38:46;11.80;99.90
35523;DHT22;61478;50.820;4.330;2023-03-12T19:41:36;11.80;99.90
35523;DHT22;61478;50.820;4.330;2023-03-12T19:44:16;11.80;99.90
35523;DHT22;61478;50.820;4.330;2023-03-12T19:46:48;11.80;99.90
35523;DHT22;61478;50.820;4.330;2023-03-12T19:49:17;11.70;99.90
35523;DHT22;61478;50.820;4.330;2023-03-12T19:51:58;11.80;99.90
35523;DHT22;61478;50.820;4.330;2023-03-12T19:54:33;11.70;99.90
35523;DHT22;61478;50.820;4.330;2023-03-12T19:56:59;11.70;99.90
35523;DHT22;61478;50.820;4.330;2023-03-12T20:02:36;11.70;99.90
35523;DHT22;61478;50.820;4.330;2023-03-12T20:05:14;11.70;99.90
35523;DHT22;61478;50.820;4.330;2023-03-12T20:13:30;11.70;99.90
35523;DHT22;61478;50.820;4.330;2023-03-12T20:16:05;11.70;99.90
35523;DHT22;61478;50.820;4.330;2023-03-12T20:22:22;11.60;99.90
35523;DHT22;61478;50.820;4.330;2023-03-12T20:24:55;11.60;99.90
35523;DHT22;61478;50.820;4.330;2023-03-12T20:27:40;11.70;99.90
35523;DHT22;61478;50.820;4.330;2023-03-12T20:30:12;11.50;99.90
35523;DHT22;61478;50.820;4.330;2023-03-12T20:33:05;11.50;99.90
35523;DHT22;61478;50.820;4.330;2023-03-12T20:35:39;11.50;99.90
35523;DHT22;61478;50.820;4.330;2023-03-12T20:38:47;11.50;99.90
35523;DHT22;61478;50.820;4.330;2023-03-12T20:41:43;11.50;99.90
35523;DHT22;61478;50.820;4.330;2023-03-12T20:44:23;11.50;99.90
35523;DHT22;61478;50.820;4.330;2023-03-12T20:47:33;11.50;99.90
35523;DHT22;61478;50.820;4.330;2023-03-12T20:50:09;11.50;99.90
35523;DHT22;61478;50.820;4.330;2023-03-12T20:56:41;11.50;99.90
35523;DHT22;61478;50.820;4.330;2023-03-12T20:59:12;11.40;99.90
35523;DHT22;61478;50.820;4.330;2023-03-12T21:02:33;11.40;99.90
35523;DHT22;61478;50.820;4.330;2023-03-12T21:05:31;11.40;99.90
35523;DHT22;61478;50.820;4.330;2023-03-12T21:08:05;11.40;99.90
35523;DHT22;61478;50.820;4.330;2023-03-12T21:10:36;11.40;99.90
35523;DHT22;61478;50.820;4.330;2023-03-12T21:13:34;11.40;99.90
35523;DHT22;61478;50.820;4.330;2023-03-12T21:16:32;11.50;99.90
35523;DHT22;61478;50.820;4.330;2023-03-12T21:25:46;11.50;99.90
35523;DHT22;61478;50.820;4.330;2023-03-12T21:28:31;11.50;99.90
35523;DHT22;61478;50.820;4.330;2023-03-12T21:31:14;11.50;99.90
35523;DHT22;61478;50.820;4.330;2023-03-12T21:40:19;11.60;99.90
35523;DHT22;61478;50.820;4.330;2023-03-12T21:43:07;11.60;99.90
35523;DHT22;61478;50.820;4.330;2023-03-12T21:45:49;11.60;99.90
35523;DHT22;61478;50.820;4.330;2023-03-12T21:48:41;11.60;99.90
35523;DHT22;61478;50.820;4.330;2023-03-12T21:51:48;11.60;99.90
35523;DHT22;61478;50.820;4.330;2023-03-12T21:54:23;11.60;99.90
35523;DHT22;61478;50.820;4.330;2023-03-12T21:57:19;11.60;99.90
35523;DHT22;61478;50.820;4.330;2023-03-12T22:00:02;11.60;99.90
35523;DHT22;61478;50.820;4.330;2023-03-12T22:02:55;11.60;99.90
35523;DHT22;61478;50.820;4.330;2023-03-12T22:09:31;11.60;99.90
35523;DHT22;61478;50.820;4.330;2023-03-12T22:12:33;11.50;99.90
35523;DHT22;61478;50.820;4.330;2023-03-12T22:15:16;11.50;99.90
35523;DHT22;61478;50.820;4.330;2023-03-12T22:18:27;11.40;99.90
35523;DHT22;61478;50.820;4.330;2023-03-12T22:25:02;11.40;99.90
35523;DHT22;61478;50.820;4.330;2023-03-12T22:35:02;11.30;99.90
35523;DHT22;61478;50.820;4.330;2023-03-12T22:37:39;11.20;99.90
35523;DHT22;61478;50.820;4.330;2023-03-12T22:40:14;11.20;99.90
35523;DHT22;61478;50.820;4.330;2023-03-12T22:43:16;11.10;99.90
35523;DHT22;61478;50.820;4.330;2023-03-12T22:46:14;11.10;99.90
35523;DHT22;61478;50.820;4.330;2023-03-12T22:48:57;11.00;99.90
35523;DHT22;61478;50.820;4.330;2023-03-12T22:58:32;11.00;99.90
35523;DHT22;61478;50.820;4.330;2023-03-12T23:01:28;11.00;99.90
35523;DHT22;61478;50.820;4.330;2023-03-12T23:04:09;11.00;99.90
35523;DHT22;61478;50.820;4.330;2023-03-12T23:07:04;11.00;99.90
35523;DHT22;61478;50.820;4.330;2023-03-12T23:20:08;11.00;99.90
35523;DHT22;61478;50.820;4.330;2023-03-12T23:23:07;11.00;99.90
35523;DHT22;61478;50.820;4.330;2023-03-12T23:26:27;11.00;99.90
35523;DHT22;61478;50.820;4.330;2023-03-12T23:29:28;10.90;99.90
35523;DHT22;61478;50.820;4.330;2023-03-12T23:32:38;10.90;99.90
35523;DHT22;61478;50.820;4.330;2023-03-12T23:35:18;10.90;99.90
35523;DHT22;61478;50.820;4.330;2023-03-12T23:38:08;10.90;99.90
35523;DHT22;61478;50.820;4.330;2023-03-12T23:40:45;10.90;99.90
35523;DHT22;61478;50.820;4.330;2023-03-12T23:44:10;10.90;99.90
35523;DHT22;61478;50.820;4.330;2023-03-12T23:46:59;10.90;99.90
35523;DHT22;61478;50.820;4.330;2023-03-12T23:50:02;11.00;99.90
35523;DHT22;61478;50.820;4.330;2023-03-12T23:53:00;11.00;99.90
